Hlavní strana
METAR-TAF:

METAR-TAF

Letiště :

L. M. Clayton Airport

Wolf Point, Montana, Spojené státy americké

zeměpisná šířka: 48-05-40N, zeměpisná délka: 105-34-38W, výška: 605 m

Aktuální stav počasí

Zpráva byla vytvořena před 30 minutami, v 13:53 UTC
Bezvětří
Teplota 12°C
Vlhkost vzduchu 58%
Tlak 1025 hPa
Viditelnost: 16.1 km
Oblačno až skoro zataženo ve výšce 10000 ft

METAR: KOLF 201353Z AUTO 00000KT 10SM BKN100 12/04 A3028 RMK AO2 SLP256 T01170039

Čas: 08:23 (14:23 UTC)

Předpověď počasí

Zpráva byla vytvořena před 3 hodinami a 3 minutami, v 11:20 UTC
Předpověď platná od 20 v 12 UTC do 21 v 12 UTC
vítr z různých směrů 4 kt
Viditelnost: 10 km
Oblačno až skoro zataženo ve výšce 12000 ft
Od 20 v 1900 UTC
Východní vítr 7 kt
Viditelnost: 10 km
Zataženo ve výšce 9000 ft
Od 21 v 0500 UTC
vítr z různých směrů 3 kt
Viditelnost: 10 km
Polojasno ve výšce 10000 ft

TAF: KOLF 201120Z 2012/2112 VRB04KT P6SM BKN120 FM201900 08007KT P6SM OVC090 FM210500 VRB03KT P6SM SCT100

Stav a předpovědi počasí z více než 4 000 letišť (zprávy METAR a TAF).

Červené a žluté tečky na mapě představují dostupné meteorologické stanice.

Když kurzor umístíte na tečku, zobrazí se název stanice.

Pak kliknutím zobrazíte stav a předpověď počasí.

Chcete-li změnit mapu, kliknutím na zelené tlačítko se znaménkem +mapu přiblížíte, kliknutím na zelené tlačítko se znaménkem – mapu oddálíte a kliknutím na zelené šipky přejdete na sousední mapy.


METAR-TAF: